KPMH/PMH METAR and TAF weather

Enter ICAO airport designator
Station Type Date Time Source
KPMH METAR 2021/03/09 09:55 UTC NOAA

KPMH 090955Z AUTO 00000KT 10SM CLR M02/M02 A3043 RMK AO2 T10161016


Station Type Date Time Source
KPMH Decoded METAR 2021/03/09 09:55 UTC NOAA

Station name not available
Mar 09, 2021 - 04:55 AM EST / 2021.03.09 0955 UTC
Wind: Calm:0
Visibility: 10 mile(s):0
Sky conditions: clear
Temperature: 29.1 F (-1.6 C)
Dew Point: 29.1 F (-1.6 C)
Relative Humidity: 100%
Pressure (altimeter): 30.43 in. Hg (1030 hPa)
ob: KPMH 090955Z AUTO 00000KT 10SM CLR M02/M02 A3043 RMK AO2 T10161016
cycle: 10

Station Type Date Time Source
KPMH TAF UTC NOAA

Error!

Example: see airport list